sensor_id;sensor_type;location;lat;lon;timestamp;pressure;altitude;pressure_sealevel;temperature
37536;BMP180;23379;51.554;6.736;2023-08-12T00:02:14;101334.00;;;21.30
37536;BMP180;23379;51.554;6.736;2023-08-12T00:04:39;101328.00;;;21.50
37536;BMP180;23379;51.554;6.736;2023-08-12T00:07:04;101336.00;;;21.70
37536;BMP180;23379;51.554;6.736;2023-08-12T00:09:30;101332.00;;;21.70
37536;BMP180;23379;51.554;6.736;2023-08-12T00:11:55;101327.00;;;21.70
37536;BMP180;23379;51.554;6.736;2023-08-12T00:14:20;101316.00;;;21.60
37536;BMP180;23379;51.554;6.736;2023-08-12T00:16:46;101316.00;;;21.50
37536;BMP180;23379;51.554;6.736;2023-08-12T00:19:11;101326.00;;;21.50
37536;BMP180;23379;51.554;6.736;2023-08-12T00:21:36;101329.00;;;21.40
37536;BMP180;23379;51.554;6.736;2023-08-12T00:24:02;101316.00;;;21.40
37536;BMP180;23379;51.554;6.736;2023-08-12T00:26:27;101317.00;;;21.40
37536;BMP180;23379;51.554;6.736;2023-08-12T00:28:53;101319.00;;;21.50
37536;BMP180;23379;51.554;6.736;2023-08-12T00:31:18;101312.00;;;21.50
37536;BMP180;23379;51.554;6.736;2023-08-12T00:33:43;101313.00;;;21.40
37536;BMP180;23379;51.554;6.736;2023-08-12T00:36:09;101309.00;;;21.50
37536;BMP180;23379;51.554;6.736;2023-08-12T00:38:34;101293.00;;;21.50
37536;BMP180;23379;51.554;6.736;2023-08-12T00:41:00;101291.00;;;21.60
37536;BMP180;23379;51.554;6.736;2023-08-12T00:43:25;101293.00;;;21.60
37536;BMP180;23379;51.554;6.736;2023-08-12T00:45:50;101303.00;;;21.60
37536;BMP180;23379;51.554;6.736;2023-08-12T00:48:16;101292.00;;;21.50
37536;BMP180;23379;51.554;6.736;2023-08-12T00:50:42;101290.00;;;21.60
37536;BMP180;23379;51.554;6.736;2023-08-12T00:53:09;101296.00;;;21.40
37536;BMP180;23379;51.554;6.736;2023-08-12T00:55:35;101294.00;;;21.40
37536;BMP180;23379;51.554;6.736;2023-08-12T00:58:02;101274.00;;;21.50
37536;BMP180;23379;51.554;6.736;2023-08-12T01:00:28;101300.00;;;21.30
37536;BMP180;23379;51.554;6.736;2023-08-12T01:02:53;101303.00;;;21.20
37536;BMP180;23379;51.554;6.736;2023-08-12T01:05:19;101297.00;;;21.30
37536;BMP180;23379;51.554;6.736;2023-08-12T01:07:45;101301.00;;;21.30
37536;BMP180;23379;51.554;6.736;2023-08-12T01:10:11;101299.00;;;21.40
37536;BMP180;23379;51.554;6.736;2023-08-12T01:12:47;101289.00;;;21.40
37536;BMP180;23379;51.554;6.736;2023-08-12T01:15:17;101278.00;;;21.40
37536;BMP180;23379;51.554;6.736;2023-08-12T01:17:46;101282.00;;;21.50
37536;BMP180;23379;51.554;6.736;2023-08-12T01:20:17;101270.00;;;21.40
37536;BMP180;23379;51.554;6.736;2023-08-12T01:22:44;101272.00;;;21.50
37536;BMP180;23379;51.554;6.736;2023-08-12T01:25:11;101266.00;;;21.40
37536;BMP180;23379;51.554;6.736;2023-08-12T01:27:37;101268.00;;;21.30
37536;BMP180;23379;51.554;6.736;2023-08-12T01:30:03;101263.00;;;21.40
37536;BMP180;23379;51.554;6.736;2023-08-12T01:32:41;101265.00;;;21.10
37536;BMP180;23379;51.554;6.736;2023-08-12T01:37:34;101242.00;;;21.40
37536;BMP180;23379;51.554;6.736;2023-08-12T01:40:01;101254.00;;;21.20
37536;BMP180;23379;51.554;6.736;2023-08-12T01:42:33;101241.00;;;21.20
37536;BMP180;23379;51.554;6.736;2023-08-12T01:44:59;101238.00;;;21.30
37536;BMP180;23379;51.554;6.736;2023-08-12T01:47:26;101243.00;;;21.30
37536;BMP180;23379;51.554;6.736;2023-08-12T01:49:52;101237.00;;;21.30
37536;BMP180;23379;51.554;6.736;2023-08-12T01:52:17;101239.00;;;21.20
37536;BMP180;23379;51.554;6.736;2023-08-12T01:54:42;101244.00;;;21.20
37536;BMP180;23379;51.554;6.736;2023-08-12T01:57:08;101232.00;;;21.00
37536;BMP180;23379;51.554;6.736;2023-08-12T01:59:35;101234.00;;;20.80
37536;BMP180;23379;51.554;6.736;2023-08-12T02:02:00;101225.00;;;20.80
37536;BMP180;23379;51.554;6.736;2023-08-12T02:04:26;101245.00;;;20.80
37536;BMP180;23379;51.554;6.736;2023-08-12T02:06:52;101227.00;;;20.70
37536;BMP180;23379;51.554;6.736;2023-08-12T02:09:17;101225.00;;;20.90
37536;BMP180;23379;51.554;6.736;2023-08-12T02:11:43;101215.00;;;20.90
37536;BMP180;23379;51.554;6.736;2023-08-12T02:14:08;101218.00;;;20.80
37536;BMP180;23379;51.554;6.736;2023-08-12T02:16:33;101217.00;;;20.90
37536;BMP180;23379;51.554;6.736;2023-08-12T02:18:58;101231.00;;;20.70
37536;BMP180;23379;51.554;6.736;2023-08-12T02:21:24;101215.00;;;20.70
37536;BMP180;23379;51.554;6.736;2023-08-12T02:23:49;101221.00;;;20.80
37536;BMP180;23379;51.554;6.736;2023-08-12T02:26:15;101210.00;;;21.10
37536;BMP180;23379;51.554;6.736;2023-08-12T02:28:41;101211.00;;;21.20
37536;BMP180;23379;51.554;6.736;2023-08-12T02:31:06;101212.00;;;21.20
37536;BMP180;23379;51.554;6.736;2023-08-12T02:33:31;101212.00;;;21.00
37536;BMP180;23379;51.554;6.736;2023-08-12T02:35:57;101200.00;;;20.90
37536;BMP180;23379;51.554;6.736;2023-08-12T02:38:22;101197.00;;;20.70
37536;BMP180;23379;51.554;6.736;2023-08-12T02:40:48;101194.00;;;20.80
37536;BMP180;23379;51.554;6.736;2023-08-12T02:43:14;101201.00;;;21.00
37536;BMP180;23379;51.554;6.736;2023-08-12T02:45:40;101198.00;;;21.00
37536;BMP180;23379;51.554;6.736;2023-08-12T02:48:05;101183.00;;;21.00
37536;BMP180;23379;51.554;6.736;2023-08-12T02:50:31;101186.00;;;20.90
37536;BMP180;23379;51.554;6.736;2023-08-12T02:52:56;101176.00;;;20.80
37536;BMP180;23379;51.554;6.736;2023-08-12T02:55:21;101189.00;;;20.80
37536;BMP180;23379;51.554;6.736;2023-08-12T02:57:47;101171.00;;;20.50
37536;BMP180;23379;51.554;6.736;2023-08-12T03:00:12;101166.00;;;20.60
37536;BMP180;23379;51.554;6.736;2023-08-12T03:02:42;101164.00;;;20.60
37536;BMP180;23379;51.554;6.736;2023-08-12T03:05:07;101167.00;;;20.70
37536;BMP180;23379;51.554;6.736;2023-08-12T03:07:33;101169.00;;;20.70
37536;BMP180;23379;51.554;6.736;2023-08-12T03:09:58;101164.00;;;20.80
37536;BMP180;23379;51.554;6.736;2023-08-12T03:12:23;101165.00;;;20.80
37536;BMP180;23379;51.554;6.736;2023-08-12T03:14:49;101164.00;;;20.90
37536;BMP180;23379;51.554;6.736;2023-08-12T03:17:14;101168.00;;;21.10
37536;BMP180;23379;51.554;6.736;2023-08-12T03:19:39;101171.00;;;21.20
37536;BMP180;23379;51.554;6.736;2023-08-12T03:22:05;101181.00;;;21.10
37536;BMP180;23379;51.554;6.736;2023-08-12T03:24:30;101164.00;;;21.20
37536;BMP180;23379;51.554;6.736;2023-08-12T03:26:56;101169.00;;;21.30
37536;BMP180;23379;51.554;6.736;2023-08-12T03:29:21;101164.00;;;21.40
37536;BMP180;23379;51.554;6.736;2023-08-12T03:31:46;101158.00;;;21.50
37536;BMP180;23379;51.554;6.736;2023-08-12T03:34:12;101166.00;;;21.50
37536;BMP180;23379;51.554;6.736;2023-08-12T03:36:37;101152.00;;;21.60
37536;BMP180;23379;51.554;6.736;2023-08-12T03:39:03;101164.00;;;21.70
37536;BMP180;23379;51.554;6.736;2023-08-12T03:41:28;101148.00;;;21.70
37536;BMP180;23379;51.554;6.736;2023-08-12T03:43:54;101160.00;;;21.60
37536;BMP180;23379;51.554;6.736;2023-08-12T03:46:19;101158.00;;;21.70
37536;BMP180;23379;51.554;6.736;2023-08-12T03:48:45;101159.00;;;21.70
37536;BMP180;23379;51.554;6.736;2023-08-12T03:51:10;101149.00;;;21.50
37536;BMP180;23379;51.554;6.736;2023-08-12T03:53:36;101155.00;;;21.50
37536;BMP180;23379;51.554;6.736;2023-08-12T03:56:01;101138.00;;;21.30
37536;BMP180;23379;51.554;6.736;2023-08-12T03:58:26;101145.00;;;21.30
37536;BMP180;23379;51.554;6.736;2023-08-12T04:00:52;101137.00;;;21.30
37536;BMP180;23379;51.554;6.736;2023-08-12T04:03:17;101149.00;;;21.40
37536;BMP180;23379;51.554;6.736;2023-08-12T04:05:52;101153.00;;;21.50
37536;BMP180;23379;51.554;6.736;2023-08-12T04:08:19;101142.00;;;21.50
37536;BMP180;23379;51.554;6.736;2023-08-12T04:10:48;101147.00;;;21.60
37536;BMP180;23379;51.554;6.736;2023-08-12T04:13:14;101141.00;;;21.50
37536;BMP180;23379;51.554;6.736;2023-08-12T04:15:39;101124.00;;;21.40
37536;BMP180;23379;51.554;6.736;2023-08-12T04:18:05;101103.00;;;21.40
37536;BMP180;23379;51.554;6.736;2023-08-12T04:20:30;101125.00;;;21.50
37536;BMP180;23379;51.554;6.736;2023-08-12T04:22:56;101137.00;;;21.50
37536;BMP180;23379;51.554;6.736;2023-08-12T04:25:22;101132.00;;;21.40
37536;BMP180;23379;51.554;6.736;2023-08-12T04:27:47;101125.00;;;21.50
37536;BMP180;23379;51.554;6.736;2023-08-12T04:30:15;101124.00;;;21.50
37536;BMP180;23379;51.554;6.736;2023-08-12T04:32:40;101115.00;;;21.30
37536;BMP180;23379;51.554;6.736;2023-08-12T04:35:06;101121.00;;;21.40
37536;BMP180;23379;51.554;6.736;2023-08-12T04:37:32;101113.00;;;21.20
37536;BMP180;23379;51.554;6.736;2023-08-12T04:39:58;101107.00;;;21.10
37536;BMP180;23379;51.554;6.736;2023-08-12T04:42:23;101088.00;;;21.30
37536;BMP180;23379;51.554;6.736;2023-08-12T04:44:49;101090.00;;;20.80
37536;BMP180;23379;51.554;6.736;2023-08-12T04:47:14;101076.00;;;21.10
37536;BMP180;23379;51.554;6.736;2023-08-12T04:49:40;101096.00;;;21.30
37536;BMP180;23379;51.554;6.736;2023-08-12T04:52:05;101109.00;;;21.40
37536;BMP180;23379;51.554;6.736;2023-08-12T04:54:32;101082.00;;;21.30
37536;BMP180;23379;51.554;6.736;2023-08-12T04:56:57;101083.00;;;21.50
37536;BMP180;23379;51.554;6.736;2023-08-12T04:59:23;101082.00;;;21.50
37536;BMP180;23379;51.554;6.736;2023-08-12T05:01:48;101049.00;;;21.60
37536;BMP180;23379;51.554;6.736;2023-08-12T05:04:13;101044.00;;;21.50
37536;BMP180;23379;51.554;6.736;2023-08-12T05:06:39;101056.00;;;21.60
37536;BMP180;23379;51.554;6.736;2023-08-12T05:09:05;101059.00;;;21.40
37536;BMP180;23379;51.554;6.736;2023-08-12T05:11:30;101057.00;;;21.40
37536;BMP180;23379;51.554;6.736;2023-08-12T05:13:56;101072.00;;;21.30
37536;BMP180;23379;51.554;6.736;2023-08-12T05:18:54;101072.00;;;21.20
37536;BMP180;23379;51.554;6.736;2023-08-12T05:21:20;101057.00;;;20.80
37536;BMP180;23379;51.554;6.736;2023-08-12T05:23:45;101061.00;;;21.00
37536;BMP180;23379;51.554;6.736;2023-08-12T05:26:10;101073.00;;;21.00
37536;BMP180;23379;51.554;6.736;2023-08-12T05:28:36;101070.00;;;20.90
37536;BMP180;23379;51.554;6.736;2023-08-12T05:31:01;101067.00;;;21.10
37536;BMP180;23379;51.554;6.736;2023-08-12T05:33:26;101071.00;;;20.90
37536;BMP180;23379;51.554;6.736;2023-08-12T05:35:52;101072.00;;;20.80
37536;BMP180;23379;51.554;6.736;2023-08-12T05:38:17;101057.00;;;20.80
37536;BMP180;23379;51.554;6.736;2023-08-12T05:40:43;101055.00;;;21.00
37536;BMP180;23379;51.554;6.736;2023-08-12T05:43:08;101051.00;;;21.00
37536;BMP180;23379;51.554;6.736;2023-08-12T05:45:33;101055.00;;;20.90
37536;BMP180;23379;51.554;6.736;2023-08-12T05:47:59;101036.00;;;21.00
37536;BMP180;23379;51.554;6.736;2023-08-12T05:50:24;101039.00;;;21.20
37536;BMP180;23379;51.554;6.736;2023-08-12T05:52:49;101040.00;;;21.00
37536;BMP180;23379;51.554;6.736;2023-08-12T05:55:15;101043.00;;;21.20
37536;BMP180;23379;51.554;6.736;2023-08-12T05:57:40;101047.00;;;21.30
37536;BMP180;23379;51.554;6.736;2023-08-12T06:00:06;101039.00;;;21.10
37536;BMP180;23379;51.554;6.736;2023-08-12T06:02:31;101033.00;;;21.20
37536;BMP180;23379;51.554;6.736;2023-08-12T06:04:57;101036.00;;;21.20
37536;BMP180;23379;51.554;6.736;2023-08-12T06:07:22;101046.00;;;21.30
37536;BMP180;23379;51.554;6.736;2023-08-12T06:09:49;101026.00;;;21.20
37536;BMP180;23379;51.554;6.736;2023-08-12T06:12:14;101033.00;;;21.00
37536;BMP180;23379;51.554;6.736;2023-08-12T06:14:40;101030.00;;;20.80
37536;BMP180;23379;51.554;6.736;2023-08-12T06:17:05;101034.00;;;20.60
37536;BMP180;23379;51.554;6.736;2023-08-12T06:19:31;101054.00;;;20.70
37536;BMP180;23379;51.554;6.736;2023-08-12T06:21:56;101050.00;;;20.90
37536;BMP180;23379;51.554;6.736;2023-08-12T06:24:22;101033.00;;;20.60
37536;BMP180;23379;51.554;6.736;2023-08-12T06:26:47;101033.00;;;20.40
37536;BMP180;23379;51.554;6.736;2023-08-12T06:29:12;101028.00;;;20.30
37536;BMP180;23379;51.554;6.736;2023-08-12T06:31:38;101035.00;;;20.40
37536;BMP180;23379;51.554;6.736;2023-08-12T06:34:03;101032.00;;;20.30
37536;BMP180;23379;51.554;6.736;2023-08-12T06:36:29;101026.00;;;20.30
37536;BMP180;23379;51.554;6.736;2023-08-12T06:38:54;101019.00;;;20.10
37536;BMP180;23379;51.554;6.736;2023-08-12T06:41:19;101015.00;;;20.10
37536;BMP180;23379;51.554;6.736;2023-08-12T06:43:45;101013.00;;;20.10
37536;BMP180;23379;51.554;6.736;2023-08-12T06:46:10;101013.00;;;20.30
37536;BMP180;23379;51.554;6.736;2023-08-12T06:48:36;100992.00;;;20.40
37536;BMP180;23379;51.554;6.736;2023-08-12T06:51:01;100994.00;;;20.30
37536;BMP180;23379;51.554;6.736;2023-08-12T06:53:32;100991.00;;;20.30
37536;BMP180;23379;51.554;6.736;2023-08-12T06:55:57;101001.00;;;20.10
37536;BMP180;23379;51.554;6.736;2023-08-12T06:58:22;100984.00;;;20.30
37536;BMP180;23379;51.554;6.736;2023-08-12T07:00:48;100992.00;;;20.30
37536;BMP180;23379;51.554;6.736;2023-08-12T07:03:13;100985.00;;;20.30
37536;BMP180;23379;51.554;6.736;2023-08-12T07:05:38;100983.00;;;20.30
37536;BMP180;23379;51.554;6.736;2023-08-12T07:08:04;100997.00;;;20.20
37536;BMP180;23379;51.554;6.736;2023-08-12T07:10:29;100999.00;;;20.10
37536;BMP180;23379;51.554;6.736;2023-08-12T07:12:55;101004.00;;;20.10
37536;BMP180;23379;51.554;6.736;2023-08-12T07:15:20;101001.00;;;20.10
37536;BMP180;23379;51.554;6.736;2023-08-12T07:17:45;101000.00;;;20.10
37536;BMP180;23379;51.554;6.736;2023-08-12T07:20:11;101002.00;;;20.30
37536;BMP180;23379;51.554;6.736;2023-08-12T07:22:36;100999.00;;;20.20
37536;BMP180;23379;51.554;6.736;2023-08-12T07:25:02;100998.00;;;20.10
37536;BMP180;23379;51.554;6.736;2023-08-12T07:27:27;100998.00;;;20.10
37536;BMP180;23379;51.554;6.736;2023-08-12T07:29:53;100992.00;;;20.10
37536;BMP180;23379;51.554;6.736;2023-08-12T07:32:18;100991.00;;;20.10
37536;BMP180;23379;51.554;6.736;2023-08-12T07:34:44;100990.00;;;20.10
37536;BMP180;23379;51.554;6.736;2023-08-12T07:37:09;100985.00;;;20.20
37536;BMP180;23379;51.554;6.736;2023-08-12T07:39:35;100988.00;;;20.10
37536;BMP180;23379;51.554;6.736;2023-08-12T07:42:00;100993.00;;;20.30
37536;BMP180;23379;51.554;6.736;2023-08-12T07:44:26;100993.00;;;20.50
37536;BMP180;23379;51.554;6.736;2023-08-12T07:46:51;101002.00;;;20.40
37536;BMP180;23379;51.554;6.736;2023-08-12T07:49:16;101006.00;;;20.50
37536;BMP180;23379;51.554;6.736;2023-08-12T07:51:42;100988.00;;;20.30
37536;BMP180;23379;51.554;6.736;2023-08-12T07:54:07;100992.00;;;20.50
37536;BMP180;23379;51.554;6.736;2023-08-12T07:56:32;100995.00;;;20.40
37536;BMP180;23379;51.554;6.736;2023-08-12T07:58:58;100985.00;;;20.30
37536;BMP180;23379;51.554;6.736;2023-08-12T08:01:23;100991.00;;;20.30
37536;BMP180;23379;51.554;6.736;2023-08-12T08:03:48;100991.00;;;20.30
37536;BMP180;23379;51.554;6.736;2023-08-12T08:06:14;100972.00;;;20.50
37536;BMP180;23379;51.554;6.736;2023-08-12T08:08:39;100988.00;;;20.50
37536;BMP180;23379;51.554;6.736;2023-08-12T08:11:05;100983.00;;;20.40
37536;BMP180;23379;51.554;6.736;2023-08-12T08:13:30;100980.00;;;20.50
37536;BMP180;23379;51.554;6.736;2023-08-12T08:15:55;100976.00;;;20.50
37536;BMP180;23379;51.554;6.736;2023-08-12T08:18:21;100968.00;;;20.40
37536;BMP180;23379;51.554;6.736;2023-08-12T08:20:46;100980.00;;;20.50
37536;BMP180;23379;51.554;6.736;2023-08-12T08:23:12;100987.00;;;20.50
37536;BMP180;23379;51.554;6.736;2023-08-12T08:25:37;100970.00;;;20.60
37536;BMP180;23379;51.554;6.736;2023-08-12T08:28:03;100976.00;;;20.50
37536;BMP180;23379;51.554;6.736;2023-08-12T08:30:28;100974.00;;;20.40
37536;BMP180;23379;51.554;6.736;2023-08-12T08:32:54;100981.00;;;20.40
37536;BMP180;23379;51.554;6.736;2023-08-12T08:35:19;100966.00;;;20.40
37536;BMP180;23379;51.554;6.736;2023-08-12T08:37:45;100972.00;;;20.60
37536;BMP180;23379;51.554;6.736;2023-08-12T08:40:10;100981.00;;;20.50
37536;BMP180;23379;51.554;6.736;2023-08-12T08:42:36;100976.00;;;20.70
37536;BMP180;23379;51.554;6.736;2023-08-12T08:45:02;100976.00;;;20.60
37536;BMP180;23379;51.554;6.736;2023-08-12T08:47:30;100972.00;;;20.70
37536;BMP180;23379;51.554;6.736;2023-08-12T08:49:56;100985.00;;;20.50
37536;BMP180;23379;51.554;6.736;2023-08-12T08:52:25;100981.00;;;20.70
37536;BMP180;23379;51.554;6.736;2023-08-12T08:54:51;100965.00;;;20.90
37536;BMP180;23379;51.554;6.736;2023-08-12T08:57:18;100984.00;;;21.00
37536;BMP180;23379;51.554;6.736;2023-08-12T08:59:44;100977.00;;;21.10
37536;BMP180;23379;51.554;6.736;2023-08-12T09:02:16;100986.00;;;20.90
37536;BMP180;23379;51.554;6.736;2023-08-12T09:04:46;100988.00;;;21.00
37536;BMP180;23379;51.554;6.736;2023-08-12T09:07:12;100969.00;;;21.00
37536;BMP180;23379;51.554;6.736;2023-08-12T09:09:46;100990.00;;;21.00
37536;BMP180;23379;51.554;6.736;2023-08-12T09:12:14;100986.00;;;21.00
37536;BMP180;23379;51.554;6.736;2023-08-12T09:14:40;100979.00;;;20.90
37536;BMP180;23379;51.554;6.736;2023-08-12T09:17:06;100985.00;;;20.90
37536;BMP180;23379;51.554;6.736;2023-08-12T09:19:32;100988.00;;;21.10
37536;BMP180;23379;51.554;6.736;2023-08-12T09:21:58;100978.00;;;20.90
37536;BMP180;23379;51.554;6.736;2023-08-12T09:24:27;100974.00;;;21.00
37536;BMP180;23379;51.554;6.736;2023-08-12T09:26:53;100982.00;;;20.90
37536;BMP180;23379;51.554;6.736;2023-08-12T09:29:29;100997.00;;;21.00
37536;BMP180;23379;51.554;6.736;2023-08-12T09:31:54;100992.00;;;21.00
37536;BMP180;23379;51.554;6.736;2023-08-12T09:34:19;100993.00;;;21.00
37536;BMP180;23379;51.554;6.736;2023-08-12T09:36:46;100993.00;;;21.10
37536;BMP180;23379;51.554;6.736;2023-08-12T09:39:12;100997.00;;;21.20
37536;BMP180;23379;51.554;6.736;2023-08-12T09:41:38;100992.00;;;20.90
37536;BMP180;23379;51.554;6.736;2023-08-12T09:44:05;100987.00;;;20.90
37536;BMP180;23379;51.554;6.736;2023-08-12T09:46:32;100994.00;;;20.80
37536;BMP180;23379;51.554;6.736;2023-08-12T09:48:58;100986.00;;;20.70
37536;BMP180;23379;51.554;6.736;2023-08-12T09:51:24;100983.00;;;20.80
37536;BMP180;23379;51.554;6.736;2023-08-12T09:53:49;101000.00;;;20.90
37536;BMP180;23379;51.554;6.736;2023-08-12T09:56:19;100996.00;;;20.90
37536;BMP180;23379;51.554;6.736;2023-08-12T09:58:48;101004.00;;;21.10
37536;BMP180;23379;51.554;6.736;2023-08-12T10:01:18;100999.00;;;21.30
37536;BMP180;23379;51.554;6.736;2023-08-12T10:03:45;100989.00;;;21.20
37536;BMP180;23379;51.554;6.736;2023-08-12T10:06:14;100992.00;;;21.00
37536;BMP180;23379;51.554;6.736;2023-08-12T10:08:40;100991.00;;;21.20
37536;BMP180;23379;51.554;6.736;2023-08-12T10:11:06;100976.00;;;21.40
37536;BMP180;23379;51.554;6.736;2023-08-12T10:13:33;100985.00;;;21.20
37536;BMP180;23379;51.554;6.736;2023-08-12T10:15:59;100991.00;;;21.20
37536;BMP180;23379;51.554;6.736;2023-08-12T10:18:27;100952.00;;;21.20
37536;BMP180;23379;51.554;6.736;2023-08-12T10:20:53;100963.00;;;21.20
37536;BMP180;23379;51.554;6.736;2023-08-12T10:23:22;100995.00;;;21.50
37536;BMP180;23379;51.554;6.736;2023-08-12T10:25:49;100981.00;;;21.80
37536;BMP180;23379;51.554;6.736;2023-08-12T10:28:19;101000.00;;;22.00
37536;BMP180;23379;51.554;6.736;2023-08-12T10:30:44;100991.00;;;21.70
37536;BMP180;23379;51.554;6.736;2023-08-12T10:33:10;100994.00;;;21.90
37536;BMP180;23379;51.554;6.736;2023-08-12T10:35:46;100994.00;;;22.30
37536;BMP180;23379;51.554;6.736;2023-08-12T10:38:19;101000.00;;;22.20
37536;BMP180;23379;51.554;6.736;2023-08-12T10:40:49;100984.00;;;22.50
37536;BMP180;23379;51.554;6.736;2023-08-12T10:43:14;100972.00;;;22.70
37536;BMP180;23379;51.554;6.736;2023-08-12T10:45:54;100982.00;;;22.90
37536;BMP180;23379;51.554;6.736;2023-08-12T10:48:24;101000.00;;;22.40
37536;BMP180;23379;51.554;6.736;2023-08-12T10:50:58;100990.00;;;22.40
37536;BMP180;23379;51.554;6.736;2023-08-12T10:53:28;100981.00;;;22.40
37536;BMP180;23379;51.554;6.736;2023-08-12T10:55:59;100974.00;;;22.40
37536;BMP180;23379;51.554;6.736;2023-08-12T10:58:50;100994.00;;;22.60
37536;BMP180;23379;51.554;6.736;2023-08-12T11:01:19;100988.00;;;22.80
37536;BMP180;23379;51.554;6.736;2023-08-12T11:03:45;100943.00;;;22.90
37536;BMP180;23379;51.554;6.736;2023-08-12T11:06:11;100951.00;;;22.60
37536;BMP180;23379;51.554;6.736;2023-08-12T11:08:41;100993.00;;;22.90
37536;BMP180;23379;51.554;6.736;2023-08-12T11:11:19;100988.00;;;22.50
37536;BMP180;23379;51.554;6.736;2023-08-12T11:13:56;101000.00;;;22.20
37536;BMP180;23379;51.554;6.736;2023-08-12T11:16:35;100997.00;;;22.00
37536;BMP180;23379;51.554;6.736;2023-08-12T11:19:00;100999.00;;;21.90
37536;BMP180;23379;51.554;6.736;2023-08-12T11:21:26;100989.00;;;21.80
37536;BMP180;23379;51.554;6.736;2023-08-12T11:23:54;100992.00;;;22.00
37536;BMP180;23379;51.554;6.736;2023-08-12T11:26:23;100983.00;;;22.00
37536;BMP180;23379;51.554;6.736;2023-08-12T11:28:49;100989.00;;;22.10
37536;BMP180;23379;51.554;6.736;2023-08-12T11:31:15;100967.00;;;22.00
37536;BMP180;23379;51.554;6.736;2023-08-12T11:33:41;100975.00;;;22.20
37536;BMP180;23379;51.554;6.736;2023-08-12T11:36:07;100973.00;;;22.50
37536;BMP180;23379;51.554;6.736;2023-08-12T11:38:33;100966.00;;;22.30
37536;BMP180;23379;51.554;6.736;2023-08-12T11:41:02;100978.00;;;22.10
37536;BMP180;23379;51.554;6.736;2023-08-12T11:43:32;100979.00;;;22.10
37536;BMP180;23379;51.554;6.736;2023-08-12T11:45:59;100974.00;;;22.00
37536;BMP180;23379;51.554;6.736;2023-08-12T11:48:26;100966.00;;;22.60
37536;BMP180;23379;51.554;6.736;2023-08-12T11:50:52;100975.00;;;22.40
37536;BMP180;23379;51.554;6.736;2023-08-12T11:53:19;100977.00;;;22.50
37536;BMP180;23379;51.554;6.736;2023-08-12T11:55:44;100975.00;;;22.70
37536;BMP180;23379;51.554;6.736;2023-08-12T11:58:11;100975.00;;;23.20
37536;BMP180;23379;51.554;6.736;2023-08-12T12:00:37;100980.00;;;23.40
37536;BMP180;23379;51.554;6.736;2023-08-12T12:03:03;100980.00;;;24.40
37536;BMP180;23379;51.554;6.736;2023-08-12T12:05:29;100982.00;;;26.60
37536;BMP180;23379;51.554;6.736;2023-08-12T12:07:55;100987.00;;;27.70
37536;BMP180;23379;51.554;6.736;2023-08-12T12:10:32;100986.00;;;27.00
37536;BMP180;23379;51.554;6.736;2023-08-12T12:12:59;100978.00;;;25.70
37536;BMP180;23379;51.554;6.736;2023-08-12T12:15:24;100969.00;;;25.90
37536;BMP180;23379;51.554;6.736;2023-08-12T12:17:51;100982.00;;;25.90
37536;BMP180;23379;51.554;6.736;2023-08-12T12:20:17;100972.00;;;25.30
37536;BMP180;23379;51.554;6.736;2023-08-12T12:22:44;100968.00;;;25.40
37536;BMP180;23379;51.554;6.736;2023-08-12T12:25:12;100973.00;;;25.70
37536;BMP180;23379;51.554;6.736;2023-08-12T12:27:38;100975.00;;;26.00
37536;BMP180;23379;51.554;6.736;2023-08-12T12:30:07;100979.00;;;25.20
37536;BMP180;23379;51.554;6.736;2023-08-12T12:32:33;100960.00;;;24.30
37536;BMP180;23379;51.554;6.736;2023-08-12T12:34:58;100977.00;;;24.50
37536;BMP180;23379;51.554;6.736;2023-08-12T12:37:27;101002.00;;;23.90
37536;BMP180;23379;51.554;6.736;2023-08-12T12:39:53;101000.00;;;23.80
37536;BMP180;23379;51.554;6.736;2023-08-12T12:42:18;100990.00;;;23.80
37536;BMP180;23379;51.554;6.736;2023-08-12T12:44:44;100939.00;;;23.50
37536;BMP180;23379;51.554;6.736;2023-08-12T12:47:09;100998.00;;;23.70
37536;BMP180;23379;51.554;6.736;2023-08-12T12:49:40;100966.00;;;24.30
37536;BMP180;23379;51.554;6.736;2023-08-12T12:52:09;100996.00;;;24.80
37536;BMP180;23379;51.554;6.736;2023-08-12T12:54:34;100977.00;;;25.10
37536;BMP180;23379;51.554;6.736;2023-08-12T12:57:00;100998.00;;;25.10
37536;BMP180;23379;51.554;6.736;2023-08-12T12:59:27;100995.00;;;25.10
37536;BMP180;23379;51.554;6.736;2023-08-12T13:01:52;100995.00;;;24.60
37536;BMP180;23379;51.554;6.736;2023-08-12T13:04:17;100989.00;;;24.30
37536;BMP180;23379;51.554;6.736;2023-08-12T13:06:43;100989.00;;;24.20
37536;BMP180;23379;51.554;6.736;2023-08-12T13:09:09;100982.00;;;23.90
37536;BMP180;23379;51.554;6.736;2023-08-12T13:11:34;100989.00;;;24.40
37536;BMP180;23379;51.554;6.736;2023-08-12T13:14:01;101022.00;;;24.30
37536;BMP180;23379;51.554;6.736;2023-08-12T13:16:26;101024.00;;;24.00
37536;BMP180;23379;51.554;6.736;2023-08-12T13:18:52;101021.00;;;23.50
37536;BMP180;23379;51.554;6.736;2023-08-12T13:21:18;101021.00;;;22.60
37536;BMP180;23379;51.554;6.736;2023-08-12T13:23:43;101015.00;;;22.60
37536;BMP180;23379;51.554;6.736;2023-08-12T13:26:09;101027.00;;;22.80
37536;BMP180;23379;51.554;6.736;2023-08-12T13:28:34;101028.00;;;22.90
37536;BMP180;23379;51.554;6.736;2023-08-12T13:30:59;101040.00;;;22.30
37536;BMP180;23379;51.554;6.736;2023-08-12T13:33:25;101042.00;;;22.30
37536;BMP180;23379;51.554;6.736;2023-08-12T13:35:50;101052.00;;;22.40
37536;BMP180;23379;51.554;6.736;2023-08-12T13:38:16;101052.00;;;22.80
37536;BMP180;23379;51.554;6.736;2023-08-12T13:40:42;101029.00;;;23.20
37536;BMP180;23379;51.554;6.736;2023-08-12T13:43:07;101032.00;;;23.60
37536;BMP180;23379;51.554;6.736;2023-08-12T13:45:32;101031.00;;;24.70
37536;BMP180;23379;51.554;6.736;2023-08-12T13:47:58;101028.00;;;25.20
37536;BMP180;23379;51.554;6.736;2023-08-12T13:50:23;101023.00;;;25.40
37536;BMP180;23379;51.554;6.736;2023-08-12T13:52:49;101040.00;;;26.20
37536;BMP180;23379;51.554;6.736;2023-08-12T13:55:15;101045.00;;;26.60
37536;BMP180;23379;51.554;6.736;2023-08-12T13:57:42;101042.00;;;26.40